Ada, OK

8:34 PM CDT on July 24, 2014 (GMT -0500)
Ada Municipal (KADH) Elev 1017 ft | 34.80 °N, 96.67 °W | Change Station
Active Advisory: Heat Advisory

Current weather conditions updated 19 minutes ago

Clear
Clear
82 °F
Feels Like 88 °F
N
0
Wind Variable Wind from North

Tomorrow is forecast to be Much Warmer than today.

Today
High -- | Low -- °F
--% Chance of Precip.
Yesterday
High -- | Low -- °F
Precip. -- in
6:30 AM 8:35 PM
Waning Crescent, 3% visible
Pressure 29.99 in
Visibility 10.0 miles
Clouds Clear
Heat Index 88 °F
Dew Point 73 °F
Humidity 74%
Rainfall 0.00 in
Snow Depth Not available.
UV 0 out of 12
Pollen 5.40 out of 12
Air Quality Not available.
Flu Activity Not available.
METAR KADH 250115Z AUTO 00000KT 10SM CLR 28/23 A2999 RMK AO2

More Conditions Fewer Conditions

Pressure 29.99 in
Visibility 10.0 miles
Clouds Clear
Heat Index 88 °F
Dew Point 73 °F
Humidity 74%
Rainfall 0.00 in
Snow Depth Not available.
UV 0 out of 12
Pollen 5.40 out of 12
Air Quality Not available.
Flu Activity Not available.
METAR KADH 250115Z AUTO 00000KT 10SM CLR 28/23 A2999 RMK AO2

More Conditions Fewer Conditions

10-Day Weather Forecast

Almanac

Astronomy

Jul. 24, 2014 Rise Set
Actual Time 6:30 AM CDT 8:35 PM CDT
Civil Twilight 6:02 AM CDT 9:03 PM CDT
Nautical Twilight 5:28 AM CDT 9:37 PM CDT
Astronomical Twilight 4:50 AM CDT 10:14 PM CDT
Moon 4:38 AM CDT (7/24) 6:52 PM CDT (7/24)
Length of Visible Light 15h 00m
Length of Day
14h 04m
Tomorrow will be 1m 25s shorter.
Waning Crescent, 3% of the Moon is Illuminated
Today
Waning Crescent
Jul 26
New
Aug 3
First Quarter
Aug 10
Full
Aug 17
Last Quarter

Today's Extremes

State Highs State Lows

Community

WunderPhotos

Upload Photos

1,737,184 photos uploaded!

Nearby

Snow Depth

Station Depth Elevation
No new snow has been reported.

Earthquake Activity

City Distance Mag. Time & Date
Perry, Oklahoma 116 miles 2.9 7:28 AM CDT
2014-07-20
Spencer, Oklahoma 69 miles 2.7 4:56 PM CDT
2014-07-18
Helena, Oklahoma 153 miles 3.2 8:41 AM CDT
2014-07-18
Guthrie, Oklahoma 83 miles 2.9 8:59 PM CDT
2014-07-17
Minimum magnitude displayed is 2.5.

Coastal Water Temperatures

Place Temperature
No Stations Reporting

Nearby Weather Stations

Station Location Temp. Heat Index Dew Point Humidity Wind Precip. Elev Updated Type
Lake View, Stratford, OK 84.5 °F 90 °F 72 °F 66% SE  at  2.0 mph 0.00 in / hr 1135 ft 8:30 PM CDT Normal

Show More Stations Show Fewer Stations